Time;durP1;ratioP1;P1;durP2;ratioP2;P2;SDS_P1;SDS_P2;PMS_P1;PMS_P2;Temp;Humidity;BMP_temperature;BMP_pressure;BME280_temperature;BME280_humidity;BME280_pressure;Samples;Min_cycle;Max_cycle;Signal;HPM_P1;HPM_P2
2023/05/09 00:02:00;;;;;;;4.07;3.67;;;16.70;87.10;;;;;;5006227;28;20493;-69
2023/05/09 00:04:26;;;;;;;6.10;4.00;;;16.70;87.50;;;;;;5097889;28;20054;-68
2023/05/09 00:06:52;;;;;;;4.63;4.20;;;16.70;87.00;;;;;;5097673;28;20485;-69
2023/05/09 00:09:18;;;;;;;4.65;4.13;;;16.80;84.90;;;;;;5115892;28;20046;-68
2023/05/09 00:11:44;;;;;;;5.28;4.00;;;16.70;85.90;;;;;;5115834;28;20027;-68
2023/05/09 00:14:13;;;;;;;5.75;4.53;;;16.70;85.20;;;;;;5115572;28;20528;-68
2023/05/09 00:16:39;;;;;;;6.60;4.50;;;16.70;85.60;;;;;;5115938;28;20370;-68
2023/05/09 00:19:05;;;;;;;7.47;4.60;;;16.80;85.30;;;;;;5097336;28;20092;-69
2023/05/09 00:21:32;;;;;;;6.07;4.35;;;16.80;84.00;;;;;;5115366;28;20028;-69
2023/05/09 00:23:59;;;;;;;6.50;5.20;;;16.80;82.70;;;;;;5115794;28;20161;-68
2023/05/09 00:26:26;;;;;;;11.77;5.53;;;16.80;81.40;;;;;;5115489;28;20039;-69
2023/05/09 00:28:51;;;;;;;5.53;4.93;;;16.80;81.40;;;;;;5115709;28;20035;-68
2023/05/09 00:31:17;;;;;;;5.65;4.88;;;16.90;81.10;;;;;;5115620;28;20046;-68
2023/05/09 00:33:43;;;;;;;7.80;4.78;;;16.80;80.60;;;;;;5115348;28;20043;-68
2023/05/09 00:36:08;;;;;;;5.57;4.70;;;16.80;80.10;;;;;;5115312;28;20089;-69
2023/05/09 00:38:34;;;;;;;9.02;5.13;;;16.80;80.90;;;;;;5115399;28;20059;-68
2023/05/09 00:41:00;;;;;;;5.13;4.65;;;16.80;82.70;;;;;;5115233;28;20031;-69
2023/05/09 00:43:26;;;;;;;6.18;5.03;;;16.80;83.20;;;;;;5115170;28;20055;-73
2023/05/09 00:45:52;;;;;;;7.15;5.00;;;16.70;81.60;;;;;;5115400;28;20031;-73
2023/05/09 00:48:17;;;;;;;5.72;4.53;;;16.80;81.00;;;;;;5115261;28;20059;-72
2023/05/09 00:50:43;;;;;;;6.95;4.80;;;16.80;79.10;;;;;;5115325;28;20106;-72
2023/05/09 00:53:09;;;;;;;5.25;4.75;;;16.80;78.70;;;;;;5096657;28;20043;-73
2023/05/09 00:55:35;;;;;;;7.40;4.80;;;16.80;80.50;;;;;;5096936;28;20116;-73
2023/05/09 00:58:02;;;;;;;8.73;4.90;;;16.80;80.70;;;;;;5113439;28;20043;-72
2023/05/09 01:00:28;;;;;;;8.27;4.90;;;16.90;78.90;;;;;;5112206;28;20028;-72
2023/05/09 01:02:55;;;;;;;6.50;5.28;;;16.90;78.90;;;;;;5112154;28;20027;-69
2023/05/09 01:05:28;;;;;;;6.88;4.80;;;16.80;80.20;;;;;;5114355;28;20046;-68
2023/05/09 01:08:20;;;;;;;8.40;5.10;;;16.80;80.00;;;;;;5115534;28;20042;-68
2023/05/09 01:10:50;;;;;;;5.65;4.78;;;16.80;80.10;;;;;;5115659;28;20032;-68
2023/05/09 01:13:35;;;;;;;7.05;4.88;;;16.80;79.50;;;;;;5115123;28;20096;-68
2023/05/09 01:16:25;;;;;;;5.60;5.05;;;16.80;80.30;;;;;;5115402;28;20061;-68
2023/05/09 01:30:05;;;;;;;6.10;4.90;;;16.70;80.10;;;;;;4890422;29;20102;-68
2023/05/09 01:33:26;;;;;;;7.32;4.80;;;16.70;80.60;;;;;;5051451;28;20039;-68
2023/05/09 01:36:02;;;;;;;6.18;4.85;;;16.70;80.70;;;;;;5031372;28;20099;-68
2023/05/09 01:42:29;;;;;;;7.25;5.07;;;16.70;79.80;;;;;;4935936;28;20201;-68
2023/05/09 01:44:56;;;;;;;6.50;4.85;;;16.70;80.50;;;;;;5031625;28;20456;-68
2023/05/09 01:47:24;;;;;;;5.72;4.47;;;16.70;80.50;;;;;;5099618;28;20381;-68
2023/05/09 01:49:51;;;;;;;5.70;4.70;;;16.70;80.70;;;;;;5114032;28;20420;-68
2023/05/09 01:52:18;;;;;;;7.45;5.05;;;16.70;80.70;;;;;;5114026;28;20405;-68
2023/05/09 01:54:45;;;;;;;7.25;4.57;;;16.70;80.70;;;;;;5114116;28;20123;-68
2023/05/09 01:57:11;;;;;;;5.97;4.90;;;16.60;80.80;;;;;;5114161;28;20385;-68
2023/05/09 01:59:43;;;;;;;8.85;5.40;;;16.60;80.70;;;;;;5113580;28;20031;-68
2023/05/09 02:02:10;;;;;;;7.95;4.93;;;16.70;80.00;;;;;;5113774;28;20032;-68
2023/05/09 02:04:36;;;;;;;6.68;5.03;;;16.60;80.90;;;;;;5095459;28;20073;-69
2023/05/09 02:07:05;;;;;;;9.07;5.07;;;16.60;81.20;;;;;;5113519;28;20451;-69
2023/05/09 02:09:30;;;;;;;7.18;4.88;;;16.50;81.80;;;;;;5113292;28;20028;-68
2023/05/09 02:11:56;;;;;;;8.25;4.80;;;16.50;82.20;;;;;;5113217;28;20035;-68
2023/05/09 02:14:22;;;;;;;5.15;4.47;;;16.50;81.80;;;;;;5112914;28;20035;-69
2023/05/09 02:16:48;;;;;;;8.38;5.00;;;16.50;82.10;;;;;;5113811;28;20032;-68
2023/05/09 02:19:15;;;;;;;5.65;4.70;;;16.50;82.80;;;;;;5113549;28;20481;-68
2023/05/09 02:21:41;;;;;;;7.22;4.90;;;16.50;82.70;;;;;;5113574;28;20038;-68
2023/05/09 02:24:07;;;;;;;8.85;4.30;;;16.40;82.40;;;;;;5113202;28;20051;-68
2023/05/09 02:26:34;;;;;;;7.43;5.13;;;16.40;82.80;;;;;;5112037;28;20113;-68
2023/05/09 02:29:02;;;;;;;6.95;4.82;;;16.40;83.60;;;;;;5113174;28;20043;-68
2023/05/09 02:31:29;;;;;;;5.85;4.80;;;16.40;84.30;;;;;;5125087;22;20019;-67
2023/05/09 02:33:55;;;;;;;6.00;5.05;;;16.40;84.50;;;;;;5072002;28;20041;-69
2023/05/09 02:36:22;;;;;;;6.30;4.97;;;16.40;84.90;;;;;;5072610;28;20456;-69
2023/05/09 02:38:48;;;;;;;6.15;4.47;;;16.40;85.90;;;;;;5072556;28;20040;-69
2023/05/09 02:41:15;;;;;;;7.22;4.53;;;16.40;86.10;;;;;;5072789;28;20020;-68
2023/05/09 02:43:41;;;;;;;6.68;4.78;;;16.40;86.40;;;;;;5072699;28;20028;-68
2023/05/09 02:46:09;;;;;;;7.45;5.57;;;16.40;84.60;;;;;;5072406;28;20072;-69
2023/05/09 02:48:35;;;;;;;5.95;4.47;;;16.40;84.60;;;;;;5072438;28;20070;-69
2023/05/09 02:51:01;;;;;;;7.20;5.30;;;16.30;86.90;;;;;;5072880;28;20044;-68
2023/05/09 02:53:27;;;;;;;7.10;5.03;;;16.30;86.10;;;;;;5072651;28;20430;-69
2023/05/09 02:55:53;;;;;;;6.68;5.18;;;16.30;86.60;;;;;;5072562;28;20040;-68
2023/05/09 02:58:19;;;;;;;5.72;5.13;;;16.30;85.40;;;;;;5072498;28;20517;-68
2023/05/09 03:00:45;;;;;;;11.45;4.97;;;16.30;85.70;;;;;;5072438;28;20041;-68
2023/05/09 03:03:11;;;;;;;7.45;5.28;;;16.30;84.80;;;;;;5072134;28;20036;-69
2023/05/09 03:05:36;;;;;;;6.85;5.18;;;16.30;85.90;;;;;;5072336;28;20048;-68
2023/05/09 03:08:03;;;;;;;6.80;5.28;;;16.30;86.20;;;;;;5072363;28;20036;-69
2023/05/09 03:10:28;;;;;;;5.63;4.95;;;16.30;86.00;;;;;;5072556;28;20037;-69
2023/05/09 03:12:54;;;;;;;7.13;5.05;;;16.30;87.10;;;;;;5072371;28;20052;-69
2023/05/09 03:15:20;;;;;;;9.75;5.45;;;16.30;86.70;;;;;;5054152;28;20459;-69
2023/05/09 03:17:46;;;;;;;5.72;5.13;;;16.30;85.90;;;;;;5072275;28;20504;-68
2023/05/09 03:20:12;;;;;;;8.98;5.32;;;16.30;87.20;;;;;;5072458;28;20110;-68
2023/05/09 03:22:38;;;;;;;7.65;5.30;;;16.30;87.20;;;;;;5072464;28;20036;-68
2023/05/09 03:25:05;;;;;;;6.30;5.35;;;16.30;87.70;;;;;;5072529;28;20032;-68
2023/05/09 03:27:31;;;;;;;7.28;5.32;;;16.20;87.10;;;;;;5075910;28;20032;-68
2023/05/09 03:29:57;;;;;;;6.07;4.93;;;16.30;88.40;;;;;;5076011;28;20071;-68
2023/05/09 03:32:23;;;;;;;6.07;5.47;;;16.20;87.60;;;;;;5075911;28;20510;-69
2023/05/09 03:34:48;;;;;;;7.60;5.30;;;16.20;88.60;;;;;;5076065;28;20163;-68
2023/05/09 03:37:14;;;;;;;5.88;5.18;;;16.20;89.30;;;;;;5075811;28;20039;-69
2023/05/09 03:39:40;;;;;;;6.25;5.30;;;16.20;88.30;;;;;;5075567;28;20097;-68
2023/05/09 03:42:06;;;;;;;8.38;5.18;;;16.20;88.30;;;;;;5076152;28;20036;-68
2023/05/09 03:44:31;;;;;;;6.10;5.35;;;16.10;88.10;;;;;;5075693;28;20108;-68
2023/05/09 03:46:57;;;;;;;7.20;5.20;;;16.20;88.40;;;;;;5057588;28;20041;-69
2023/05/09 03:49:23;;;;;;;5.55;5.03;;;16.20;87.90;;;;;;5075567;28;20401;-68
2023/05/09 03:51:49;;;;;;;6.68;5.28;;;16.10;87.10;;;;;;5075649;28;20037;-69
2023/05/09 03:54:14;;;;;;;8.57;5.22;;;16.10;87.70;;;;;;5075509;28;20045;-69
2023/05/09 03:56:40;;;;;;;8.32;5.00;;;16.20;87.70;;;;;;5075371;28;20028;-69
2023/05/09 03:59:06;;;;;;;6.20;4.90;;;16.10;87.00;;;;;;5075414;28;20064;-69
2023/05/09 04:01:32;;;;;;;6.43;4.70;;;16.10;86.20;;;;;;5075668;28;20036;-69
2023/05/09 04:03:58;;;;;;;6.18;5.13;;;16.10;86.20;;;;;;5075440;28;20115;-69
2023/05/09 04:06:23;;;;;;;6.47;5.00;;;16.10;85.60;;;;;;5075376;28;20068;-68
2023/05/09 04:08:49;;;;;;;7.80;4.72;;;16.10;84.80;;;;;;5075401;28;20032;-68
2023/05/09 04:11:15;;;;;;;5.50;4.40;;;16.20;83.10;;;;;;5075372;28;20036;-69
2023/05/09 04:13:41;;;;;;;6.15;4.68;;;16.30;82.70;;;;;;5075386;28;20044;-68
2023/05/09 04:16:07;;;;;;;4.70;3.85;;;16.30;82.00;;;;;;5075177;28;20071;-69
2023/05/09 04:18:32;;;;;;;4.72;4.18;;;16.30;80.70;;;;;;5075455;28;20044;-69
2023/05/09 04:20:58;;;;;;;7.93;4.60;;;16.30;79.80;;;;;;5075074;28;20588;-68
2023/05/09 04:23:24;;;;;;;7.35;4.78;;;16.30;79.90;;;;;;5075113;28;20472;-68
2023/05/09 04:25:50;;;;;;;5.28;4.20;;;16.40;79.40;;;;;;5074908;28;20078;-68
2023/05/09 04:28:16;;;;;;;7.68;4.50;;;16.30;79.30;;;;;;5074766;28;20032;-68
2023/05/09 04:30:42;;;;;;;6.40;4.90;;;16.30;79.60;;;;;;5074905;28;20043;-68
2023/05/09 04:33:08;;;;;;;7.15;4.63;;;16.30;79.00;;;;;;5074753;28;20059;-69
2023/05/09 04:35:34;;;;;;;5.32;4.45;;;16.30;77.70;;;;;;5075109;28;20112;-69
2023/05/09 04:37:59;;;;;;;7.25;4.78;;;16.30;78.20;;;;;;5074022;28;20082;-69
2023/05/09 04:40:25;;;;;;;5.55;4.38;;;16.40;77.70;;;;;;5074700;28;20033;-69
2023/05/09 04:42:51;;;;;;;10.82;5.57;;;16.40;77.90;;;;;;5074699;28;20035;-68
2023/05/09 04:45:17;;;;;;;7.85;5.00;;;16.40;77.70;;;;;;5074669;28;20059;-69
2023/05/09 04:47:43;;;;;;;5.53;4.93;;;16.40;77.20;;;;;;5074856;28;20029;-69
2023/05/09 04:50:09;;;;;;;8.60;5.10;;;16.30;77.00;;;;;;5074540;28;20020;-69
2023/05/09 04:52:35;;;;;;;10.60;5.30;;;16.40;77.20;;;;;;5074729;28;20044;-70
2023/05/09 04:55:01;;;;;;;6.75;5.05;;;16.40;77.40;;;;;;5056588;28;20554;-69
2023/05/09 04:57:26;;;;;;;7.40;5.22;;;16.40;77.30;;;;;;5074547;28;20033;-69
2023/05/09 04:59:52;;;;;;;6.63;5.32;;;16.40;77.30;;;;;;5074460;28;20028;-69
2023/05/09 05:02:18;;;;;;;7.90;5.43;;;16.40;77.50;;;;;;5074321;28;20393;-69
2023/05/09 05:04:44;;;;;;;7.63;5.47;;;16.30;77.90;;;;;;5074420;28;20033;-69
2023/05/09 05:07:09;;;;;;;7.00;5.32;;;16.30;78.60;;;;;;5074378;28;20119;-69
2023/05/09 05:09:35;;;;;;;10.57;5.28;;;16.30;78.20;;;;;;5074265;28;20025;-69
2023/05/09 05:12:01;;;;;;;7.70;5.13;;;16.30;78.40;;;;;;5074084;28;20075;-69
2023/05/09 05:14:27;;;;;;;6.68;5.15;;;16.30;78.30;;;;;;5073983;28;20047;-69
2023/05/09 05:16:52;;;;;;;6.75;4.97;;;16.20;78.50;;;;;;5074063;28;20036;-69
2023/05/09 05:19:18;;;;;;;5.93;5.20;;;16.20;78.80;;;;;;5073874;28;20040;-69
2023/05/09 05:21:44;;;;;;;5.68;5.07;;;16.20;80.20;;;;;;5073784;28;20030;-69
2023/05/09 05:24:09;;;;;;;8.57;5.45;;;16.20;80.00;;;;;;5073711;28;20033;-69
2023/05/09 05:26:35;;;;;;;7.45;5.50;;;16.20;80.30;;;;;;5073657;28;20111;-69
2023/05/09 05:29:01;;;;;;;5.95;4.95;;;16.20;80.00;;;;;;5073462;28;20070;-69
2023/05/09 05:31:26;;;;;;;8.40;5.50;;;16.20;79.80;;;;;;5073526;28;20029;-69
2023/05/09 05:33:52;;;;;;;6.35;5.30;;;16.20;79.80;;;;;;5073568;28;20151;-69
2023/05/09 05:36:18;;;;;;;10.40;5.28;;;16.30;80.00;;;;;;5073564;28;20104;-69
2023/05/09 05:38:44;;;;;;;5.90;5.15;;;16.30;80.40;;;;;;5073260;28;20108;-69
2023/05/09 05:41:14;;;;;;;6.45;4.95;;;16.30;80.70;;;;;;5055503;28;20064;-69
2023/05/09 05:43:40;;;;;;;5.75;4.68;;;16.40;80.70;;;;;;5073343;28;20528;-70
2023/05/09 05:46:06;;;;;;;8.38;5.10;;;16.40;80.10;;;;;;5073609;28;20032;-68
2023/05/09 05:48:31;;;;;;;6.80;4.68;;;16.40;78.80;;;;;;5072531;28;20044;-69
2023/05/09 05:50:57;;;;;;;6.93;4.70;;;16.40;79.80;;;;;;5072805;28;20466;-69
2023/05/09 05:53:23;;;;;;;9.20;4.78;;;16.50;78.70;;;;;;5073596;28;20402;-69
2023/05/09 05:55:48;;;;;;;9.55;5.05;;;16.50;78.70;;;;;;5072763;28;20116;-68
2023/05/09 05:58:14;;;;;;;10.13;5.15;;;16.50;78.90;;;;;;5071924;28;20033;-68
2023/05/09 06:00:40;;;;;;;9.48;4.90;;;16.60;78.50;;;;;;5072933;28;20107;-68
2023/05/09 06:03:06;;;;;;;8.27;4.53;;;16.60;79.10;;;;;;5073058;28;20174;-69
2023/05/09 06:05:32;;;;;;;5.65;4.25;;;16.60;78.50;;;;;;5072475;28;20029;-69
2023/05/09 06:07:58;;;;;;;6.60;4.72;;;16.60;78.20;;;;;;5072461;28;20036;-68
2023/05/09 06:10:24;;;;;;;5.40;4.50;;;16.70;78.00;;;;;;5091994;28;20413;-68
2023/05/09 06:12:49;;;;;;;5.95;4.70;;;16.70;77.00;;;;;;5087555;28;20399;-71
2023/05/09 06:15:15;;;;;;;8.02;4.75;;;16.70;77.10;;;;;;5072504;28;20114;-68
2023/05/09 06:17:41;;;;;;;7.95;4.90;;;16.80;76.90;;;;;;5072477;28;20032;-69
2023/05/09 06:20:07;;;;;;;5.45;4.55;;;16.80;77.00;;;;;;5072838;28;20036;-68
2023/05/09 06:22:33;;;;;;;6.18;4.85;;;16.80;77.30;;;;;;5072627;28;20460;-69
2023/05/09 06:24:58;;;;;;;5.97;4.60;;;16.80;77.40;;;;;;5072138;28;20032;-69
2023/05/09 06:27:24;;;;;;;5.95;4.93;;;16.80;78.00;;;;;;5072097;28;20043;-68
2023/05/09 06:29:51;;;;;;;7.20;4.70;;;16.80;77.40;;;;;;5072346;28;20047;-69
2023/05/09 06:32:18;;;;;;;8.70;5.10;;;16.90;76.90;;;;;;5072025;28;20094;-68
2023/05/09 06:34:44;;;;;;;5.43;4.57;;;16.90;77.80;;;;;;5072521;28;20038;-68
2023/05/09 06:37:09;;;;;;;7.93;4.90;;;16.90;78.40;;;;;;5072278;28;20108;-68
2023/05/09 06:39:35;;;;;;;5.18;4.55;;;16.90;78.70;;;;;;5072338;28;20123;-68
2023/05/09 06:42:01;;;;;;;7.32;4.72;;;16.90;78.70;;;;;;5072134;28;20531;-68
2023/05/09 06:44:26;;;;;;;8.75;5.10;;;17.00;77.20;;;;;;5071689;28;20062;-69
2023/05/09 06:46:52;;;;;;;7.85;4.60;;;17.00;76.50;;;;;;5088970;28;20390;-69
2023/05/09 06:49:18;;;;;;;6.45;4.55;;;17.00;77.00;;;;;;5092625;28;20070;-69
2023/05/09 06:51:44;;;;;;;8.35;4.95;;;17.00;77.80;;;;;;5092595;28;20028;-69
2023/05/09 06:54:10;;;;;;;9.57;4.85;;;17.10;76.90;;;;;;5092354;28;20044;-69
2023/05/09 06:56:35;;;;;;;5.93;4.90;;;17.10;76.50;;;;;;5092714;28;20174;-68
2023/05/09 06:59:01;;;;;;;8.68;5.20;;;17.10;76.10;;;;;;5092639;28;20032;-69
2023/05/09 07:01:27;;;;;;;5.25;4.57;;;17.20;76.60;;;;;;5095311;28;20039;-69
2023/05/09 07:03:53;;;;;;;8.68;5.07;;;17.20;76.10;;;;;;5096960;28;20024;-69
2023/05/09 07:06:18;;;;;;;8.02;5.10;;;17.20;77.10;;;;;;5096486;28;20024;-69
2023/05/09 07:08:44;;;;;;;5.53;4.63;;;17.30;76.60;;;;;;5096582;28;20035;-69
2023/05/09 07:11:10;;;;;;;7.65;4.30;;;17.30;76.40;;;;;;5078479;28;20028;-69
2023/05/09 07:13:36;;;;;;;7.00;4.60;;;17.30;76.20;;;;;;5096487;28;20055;-69
2023/05/09 07:16:02;;;;;;;5.55;4.57;;;17.40;76.30;;;;;;5096417;28;20105;-69
2023/05/09 07:18:28;;;;;;;8.10;5.13;;;17.50;76.00;;;;;;5096352;28;20401;-68
2023/05/09 07:20:54;;;;;;;6.88;4.72;;;17.50;75.20;;;;;;5096360;28;20036;-69
2023/05/09 07:23:20;;;;;;;7.78;4.53;;;17.50;75.30;;;;;;5096603;28;20043;-68
2023/05/09 07:25:45;;;;;;;6.45;5.05;;;17.60;75.40;;;;;;5096600;28;20060;-68
2023/05/09 07:28:11;;;;;;;9.50;4.78;;;17.60;75.10;;;;;;5096360;28;20501;-68
2023/05/09 07:30:37;;;;;;;5.53;4.25;;;17.60;75.00;;;;;;5096197;28;20032;-68
2023/05/09 07:33:03;;;;;;;8.40;4.45;;;17.70;76.00;;;;;;5095676;28;20048;-68
2023/05/09 07:35:29;;;;;;;13.02;5.18;;;17.70;75.30;;;;;;5096271;28;20032;-68
2023/05/09 07:37:55;;;;;;;5.90;4.40;;;17.80;75.20;;;;;;5096125;28;20443;-68
2023/05/09 07:40:20;;;;;;;6.85;4.53;;;17.80;74.80;;;;;;5095865;28;20498;-68
2023/05/09 07:42:48;;;;;;;5.43;4.40;;;17.90;75.80;;;;;;5095974;28;20032;-68
2023/05/09 07:45:15;;;;;;;4.97;4.47;;;18.00;75.90;;;;;;5096020;28;20032;-69
2023/05/09 07:47:40;;;;;;;6.18;4.07;;;18.00;75.70;;;;;;5096073;28;20036;-68
2023/05/09 07:50:06;;;;;;;4.78;4.03;;;18.00;74.00;;;;;;5096005;28;20040;-68
2023/05/09 07:52:32;;;;;;;7.38;4.45;;;18.10;73.80;;;;;;5095787;28;20370;-68
2023/05/09 07:54:58;;;;;;;11.27;4.65;;;18.10;73.70;;;;;;5095823;28;20123;-68
2023/05/09 07:57:24;;;;;;;6.93;4.32;;;18.10;74.10;;;;;;5095705;28;20478;-68
2023/05/09 07:59:50;;;;;;;7.20;4.35;;;18.20;74.60;;;;;;5077592;28;20035;-70
2023/05/09 08:02:15;;;;;;;5.95;4.03;;;18.20;72.70;;;;;;5095512;28;20043;-70
2023/05/09 08:04:41;;;;;;;9.98;4.05;;;18.30;72.30;;;;;;5095576;28;20032;-71
2023/05/09 08:07:07;;;;;;;8.25;4.68;;;18.30;72.70;;;;;;5095452;28;20043;-70
2023/05/09 08:09:33;;;;;;;6.07;3.80;;;18.30;72.40;;;;;;5095467;28;20392;-70
2023/05/09 08:11:59;;;;;;;5.70;4.07;;;18.30;71.70;;;;;;5094391;28;20101;-71
2023/05/09 08:14:25;;;;;;;9.68;4.90;;;18.30;72.40;;;;;;5095397;28;20048;-71
2023/05/09 08:16:51;;;;;;;10.65;4.60;;;18.40;71.70;;;;;;5095536;28;20427;-71
2023/05/09 08:19:16;;;;;;;11.27;4.78;;;18.40;71.80;;;;;;5095286;28;20086;-72
2023/05/09 08:21:42;;;;;;;8.57;4.78;;;18.40;73.10;;;;;;5095091;28;20122;-71
2023/05/09 08:24:08;;;;;;;5.78;4.20;;;18.50;72.30;;;;;;5095227;28;20115;-70
2023/05/09 08:26:34;;;;;;;8.50;4.55;;;18.50;72.10;;;;;;5095238;28;20035;-72
2023/05/09 08:29:00;;;;;;;15.95;6.05;;;18.50;71.60;;;;;;5095161;28;20487;-71
2023/05/09 08:31:26;;;;;;;5.63;4.38;;;18.60;71.80;;;;;;5094729;28;20107;-71
2023/05/09 08:33:52;;;;;;;6.53;4.15;;;18.60;70.80;;;;;;5094951;28;20040;-69
2023/05/09 08:36:18;;;;;;;5.43;4.00;;;18.60;71.00;;;;;;5076642;28;20028;-71
2023/05/09 08:38:43;;;;;;;5.32;4.13;;;18.70;71.60;;;;;;5095005;28;20118;-69
2023/05/09 08:41:09;;;;;;;4.00;3.60;;;18.70;71.60;;;;;;5094836;28;20024;-68
2023/05/09 08:43:37;;;;;;;5.38;3.63;;;18.70;71.10;;;;;;5092646;28;20123;-69
2023/05/09 08:46:07;;;;;;;7.03;4.13;;;18.80;73.60;;;;;;5092035;28;20478;-69
2023/05/09 08:48:37;;;;;;;5.75;4.22;;;18.80;72.80;;;;;;5092632;28;20043;-68
2023/05/09 08:51:06;;;;;;;7.88;3.95;;;18.90;71.40;;;;;;5092019;28;20055;-69
2023/05/09 08:53:33;;;;;;;5.40;3.83;;;18.90;69.30;;;;;;5091710;28;20050;-69
2023/05/09 08:56:00;;;;;;;6.40;3.53;;;18.90;69.40;;;;;;5094138;28;20362;-69
2023/05/09 08:58:26;;;;;;;7.32;3.70;;;18.90;70.20;;;;;;5094831;28;20032;-69
2023/05/09 09:00:54;;;;;;;7.80;4.03;;;19.00;69.10;;;;;;5094558;28;20050;-69
2023/05/09 09:03:20;;;;;;;7.25;3.45;;;19.00;68.50;;;;;;5094484;28;20039;-69
2023/05/09 09:05:47;;;;;;;4.35;3.30;;;19.00;68.20;;;;;;5094313;28;20441;-70
2023/05/09 09:08:14;;;;;;;6.78;3.85;;;19.00;68.30;;;;;;5093870;28;20040;-69
2023/05/09 09:10:49;;;;;;;6.55;3.38;;;19.00;67.70;;;;;;5093314;28;20028;-70
2023/05/09 09:13:16;;;;;;;3.47;3.10;;;19.10;68.80;;;;;;5094031;28;20070;-69
2023/05/09 09:15:44;;;;;;;5.78;3.70;;;19.10;68.50;;;;;;5094003;28;20449;-69
2023/05/09 09:18:21;;;;;;;5.57;3.45;;;19.20;68.70;;;;;;5094129;28;20104;-68
2023/05/09 09:21:02;;;;;;;11.77;3.80;;;19.30;68.40;;;;;;5094124;28;20033;-69
2023/05/09 09:23:29;;;;;;;10.85;3.40;;;19.40;67.70;;;;;;5093763;28;20036;-68
2023/05/09 09:26:02;;;;;;;4.78;3.42;;;19.50;67.00;;;;;;5094181;28;20063;-69
2023/05/09 09:28:28;;;;;;;4.15;3.33;;;19.60;66.80;;;;;;5094115;28;20124;-69
2023/05/09 09:30:54;;;;;;;5.78;3.38;;;19.60;67.20;;;;;;5094231;28;20021;-69
2023/05/09 09:33:24;;;;;;;8.32;3.70;;;19.60;65.40;;;;;;5093797;28;20055;-70
2023/05/09 09:35:51;;;;;;;9.75;5.00;;;19.60;65.70;;;;;;5093974;28;20036;-69
2023/05/09 09:38:18;;;;;;;8.85;3.40;;;19.60;65.90;;;;;;5093842;28;20488;-69
2023/05/09 09:41:03;;;;;;;9.50;3.83;;;19.60;66.50;;;;;;5072516;28;20394;-70
2023/05/09 09:43:31;;;;;;;10.63;3.42;;;19.70;67.00;;;;;;5087076;28;20032;-69
2023/05/09 09:46:04;;;;;;;7.10;3.55;;;19.80;64.80;;;;;;5093776;28;20028;-70
2023/05/09 09:48:32;;;;;;;6.18;3.95;;;19.80;64.70;;;;;;5093097;28;20385;-70
2023/05/09 09:51:12;;;;;;;6.68;4.22;;;19.80;64.60;;;;;;5090790;28;20032;-70
2023/05/09 09:53:42;;;;;;;9.82;4.00;;;19.80;63.70;;;;;;5090504;28;20051;-69
2023/05/09 09:56:08;;;;;;;7.53;3.67;;;19.80;63.50;;;;;;5092052;28;20028;-69
2023/05/09 09:58:34;;;;;;;9.52;3.30;;;19.90;65.00;;;;;;5093621;28;20393;-69
2023/05/09 10:01:07;;;;;;;7.95;3.30;;;19.90;64.80;;;;;;5074883;28;20052;-70
2023/05/09 10:03:37;;;;;;;4.90;3.70;;;20.10;64.10;;;;;;5092935;28;20142;-70
2023/05/09 10:06:04;;;;;;;6.63;3.85;;;20.20;64.70;;;;;;5093411;28;20424;-70
2023/05/09 10:08:30;;;;;;;7.05;3.90;;;20.30;62.60;;;;;;5093357;28;20107;-70
2023/05/09 10:10:57;;;;;;;5.68;3.38;;;20.20;63.00;;;;;;5093255;28;20060;-69
2023/05/09 10:13:24;;;;;;;6.65;4.18;;;20.20;62.50;;;;;;4263033;28;20048;-69
2023/05/09 10:15:50;;;;;;;5.43;3.17;;;20.20;64.90;;;;;;5093432;28;20036;-70
2023/05/09 10:18:18;;;;;;;4.22;3.47;;;20.30;65.20;;;;;;5092961;28;20032;-69
2023/05/09 10:20:45;;;;;;;5.25;3.13;;;20.40;64.20;;;;;;5092486;28;20020;-68
2023/05/09 10:23:14;;;;;;;7.25;3.30;;;20.50;61.70;;;;;;5092766;28;20039;-69
2023/05/09 10:26:17;;;;;;;9.40;3.83;;;20.50;60.90;;;;;;5092816;28;20028;-69
2023/05/09 10:28:45;;;;;;;6.18;3.10;;;20.50;61.30;;;;;;5090227;28;20450;-70
2023/05/09 10:31:27;;;;;;;13.65;4.50;;;20.60;61.00;;;;;;5090240;28;20063;-70
2023/05/09 10:33:54;;;;;;;5.50;3.22;;;20.60;61.80;;;;;;5069382;28;20055;-69
2023/05/09 10:36:22;;;;;;;4.28;3.15;;;20.70;60.50;;;;;;5072191;28;20029;-69
2023/05/09 10:38:50;;;;;;;4.53;3.40;;;20.70;60.70;;;;;;5072814;28;20024;-70
2023/05/09 10:41:17;;;;;;;5.22;3.30;;;20.80;60.60;;;;;;5072567;28;20097;-69
2023/05/09 10:43:44;;;;;;;6.07;3.70;;;20.80;60.10;;;;;;5072325;28;20024;-69
2023/05/09 10:46:11;;;;;;;7.68;3.38;;;20.90;60.80;;;;;;5071911;28;20071;-70
2023/05/09 10:48:38;;;;;;;8.63;3.40;;;21.00;60.80;;;;;;5071919;28;20028;-70
2023/05/09 10:51:05;;;;;;;8.40;3.15;;;21.10;58.10;;;;;;5072189;28;20110;-70
2023/05/09 10:53:48;;;;;;;5.97;3.13;;;21.20;58.40;;;;;;5072058;28;20046;-69
2023/05/09 10:56:34;;;;;;;6.50;2.78;;;21.20;58.20;;;;;;5071641;28;20028;-70
2023/05/09 10:59:00;;;;;;;6.57;3.20;;;21.20;57.00;;;;;;5072219;28;20547;-70
2023/05/09 11:01:37;;;;;;;8.18;3.40;;;21.20;56.50;;;;;;5072453;28;20402;-70
2023/05/09 11:04:15;;;;;;;5.10;2.70;;;21.20;57.10;;;;;;5072425;28;20033;-70
2023/05/09 11:06:47;;;;;;;6.13;3.13;;;21.20;58.10;;;;;;5072270;28;20033;-70
2023/05/09 11:09:28;;;;;;;;;;;21.20;57.20;;;;;;5072671;28;20444;-71
2023/05/09 11:12:14;;;;;;;5.10;2.78;;;21.30;57.30;;;;;;5071354;28;19951;-72
2023/05/09 11:14:45;;;;;;;3.65;2.40;;;21.40;56.90;;;;;;5071771;28;20379;-72
2023/05/09 11:17:21;;;;;;;11.77;2.70;;;21.50;55.90;;;;;;5071951;28;20025;-72
2023/05/09 11:19:50;;;;;;;7.88;2.78;;;21.50;55.00;;;;;;5070465;28;20072;-71
2023/05/09 11:22:21;;;;;;;4.32;2.42;;;21.60;54.60;;;;;;5071773;28;20482;-71
2023/05/09 11:24:49;;;;;;;4.43;2.60;;;21.70;54.10;;;;;;5072134;28;20107;-71
2023/05/09 11:27:25;;;;;;;5.78;2.90;;;21.70;53.10;;;;;;5071791;28;20115;-71
2023/05/09 11:29:52;;;;;;;6.13;2.35;;;21.70;52.70;;;;;;5068922;28;20112;-71
2023/05/09 11:32:26;;;;;;;7.20;2.47;;;21.80;53.50;;;;;;5069111;28;20041;-71
2023/05/09 11:35:08;;;;;;;10.18;3.60;;;21.80;52.40;;;;;;5071933;28;20552;-71
2023/05/09 11:37:43;;;;;;;5.15;2.80;;;21.80;53.10;;;;;;5071398;28;20052;-71
2023/05/09 11:40:12;;;;;;;7.53;3.10;;;21.80;53.50;;;;;;5071906;28;20386;-71
2023/05/09 11:42:54;;;;;;;8.02;2.65;;;21.80;51.80;;;;;;5071599;28;20547;-71
2023/05/09 11:45:21;;;;;;;6.88;2.97;;;21.80;51.40;;;;;;5071746;28;20029;-72
2023/05/09 11:47:47;;;;;;;5.35;2.67;;;21.80;52.50;;;;;;5074160;28;20108;-73
2023/05/09 11:50:15;;;;;;;8.18;3.05;;;21.80;52.50;;;;;;5075319;28;20033;-71
2023/05/09 11:52:42;;;;;;;4.47;2.80;;;21.80;52.00;;;;;;5074656;28;20389;-71
2023/05/09 11:55:12;;;;;;;8.63;2.85;;;21.80;50.60;;;;;;5072578;28;20036;-71
2023/05/09 11:57:45;;;;;;;5.10;3.05;;;21.80;50.60;;;;;;5072851;28;20042;-71
2023/05/09 12:00:12;;;;;;;5.03;3.00;;;21.90;51.10;;;;;;5074174;28;20347;-72
2023/05/09 12:02:38;;;;;;;6.43;2.90;;;21.90;51.30;;;;;;5075340;28;20509;-72
2023/05/09 12:05:08;;;;;;;5.35;2.35;;;22.00;50.60;;;;;;5074935;28;20028;-72
2023/05/09 12:07:36;;;;;;;3.80;2.50;;;22.00;49.20;;;;;;5074773;28;20032;-71
2023/05/09 12:10:07;;;;;;;7.20;2.53;;;22.00;50.70;;;;;;5074966;28;20335;-71
2023/05/09 12:12:42;;;;;;;7.65;3.40;;;22.00;51.10;;;;;;5074613;28;20036;-72
2023/05/09 12:15:12;;;;;;;6.85;2.65;;;22.10;49.30;;;;;;5074630;28;20039;-72
2023/05/09 12:17:38;;;;;;;6.75;2.60;;;22.10;49.90;;;;;;5057353;28;20412;-72
2023/05/09 12:20:05;;;;;;;10.35;3.05;;;22.20;49.20;;;;;;5075166;28;20043;-71
2023/05/09 12:22:32;;;;;;;4.47;2.58;;;22.20;48.40;;;;;;5075127;28;20025;-71
2023/05/09 12:25:04;;;;;;;4.50;2.25;;;22.30;49.70;;;;;;5075351;28;20127;-71
2023/05/09 12:27:31;;;;;;;6.80;2.40;;;22.30;48.70;;;;;;5074960;28;20037;-71
2023/05/09 12:29:59;;;;;;;8.20;2.10;;;22.40;47.50;;;;;;5075005;28;20039;-71
2023/05/09 12:32:30;;;;;;;8.27;2.42;;;22.40;47.70;;;;;;5074374;28;20080;-71
2023/05/09 12:34:57;;;;;;;10.98;2.63;;;22.40;48.40;;;;;;5074620;28;20452;-71
2023/05/09 12:37:22;;;;;;;5.07;2.10;;;22.50;48.70;;;;;;5075016;28;20036;-71
2023/05/09 12:40:05;;;;;;;6.50;2.88;;;22.50;47.70;;;;;;5074297;28;20094;-71
2023/05/09 12:42:32;;;;;;;4.13;2.10;;;22.60;47.40;;;;;;5074048;28;20036;-71
2023/05/09 12:45:00;;;;;;;8.25;2.50;;;22.60;47.20;;;;;;5074485;28;20094;-71
2023/05/09 12:47:30;;;;;;;9.27;2.33;;;22.70;47.20;;;;;;5074037;28;20079;-72
2023/05/09 12:49:58;;;;;;;6.30;1.98;;;22.70;46.60;;;;;;5074217;28;20512;-72
2023/05/09 12:52:23;;;;;;;7.53;2.30;;;22.70;45.50;;;;;;5073895;28;20051;-72
2023/05/09 12:54:52;;;;;;;4.65;2.25;;;22.70;46.70;;;;;;5073892;28;20035;-71
2023/05/09 12:57:26;;;;;;;5.20;2.00;;;22.70;45.80;;;;;;5074219;28;20539;-72
2023/05/09 13:00:01;;;;;;;4.03;2.53;;;22.70;46.40;;;;;;5073624;28;20041;-71
2023/05/09 13:02:27;;;;;;;7.53;2.00;;;22.70;45.70;;;;;;5074137;28;20394;-71
2023/05/09 13:05:09;;;;;;;6.90;2.47;;;22.70;44.90;;;;;;5073902;28;20043;-71